Time;durP1;ratioP1;P1;durP2;ratioP2;P2;SDS_P1;SDS_P2;PMS_P1;PMS_P2;Temp;Humidity;BMP_temperature;BMP_pressure;BME280_temperature;BME280_humidity;BME280_pressure;Samples;Min_cycle;Max_cycle;Signal;HPM_P1;HPM_P2
2022/03/02 00:00:12;;;;;;;14.03;9.03;;;2.90;44.90;;;3.51;40.33;98416.16;6236859;23;20234;-36
2022/03/02 00:02:42;;;;;;;13.07;8.30;;;2.90;45.30;;;3.50;40.22;98409.19;6236531;23;20020;-36
2022/03/02 00:05:10;;;;;;;15.73;8.70;;;2.90;45.30;;;3.48;40.41;98398.75;6237095;23;20016;-35
2022/03/02 00:07:38;;;;;;;15.50;8.97;;;2.90;45.40;;;3.49;40.38;98389.91;6235783;23;20016;-35
2022/03/02 00:10:06;;;;;;;17.67;9.23;;;2.90;45.30;;;3.51;40.81;98390.66;6236483;23;20338;-35
2022/03/02 00:12:34;;;;;;;15.20;8.77;;;3.00;45.30;;;3.52;40.44;98397.59;6236322;23;20024;-36
2022/03/02 00:15:03;;;;;;;13.67;8.33;;;3.00;45.30;;;3.55;40.83;98394.78;6236973;23;20019;-35
2022/03/02 00:17:31;;;;;;;13.10;8.13;;;3.10;45.30;;;3.58;40.79;98379.72;6236956;23;20053;-36
2022/03/02 00:19:59;;;;;;;17.07;8.77;;;3.10;44.90;;;3.57;40.43;98378.00;6237288;23;20020;-36
2022/03/02 00:22:27;;;;;;;12.00;8.23;;;3.10;44.70;;;3.61;40.51;98385.63;6246507;23;20306;-36
2022/03/02 00:24:54;;;;;;;15.20;8.87;;;3.20;44.60;;;3.63;40.36;98390.81;6237177;23;20016;-36
2022/03/02 00:27:23;;;;;;;15.83;8.50;;;3.20;44.70;;;3.61;40.63;98395.34;6236273;23;20464;-36
2022/03/02 00:29:52;;;;;;;15.47;9.33;;;3.10;44.90;;;3.56;40.45;98398.25;6237280;23;20024;-36
2022/03/02 00:32:19;;;;;;;15.73;9.60;;;3.00;45.20;;;3.54;41.19;98405.41;6237488;23;20226;-36
2022/03/02 00:34:47;;;;;;;18.37;8.67;;;3.00;45.40;;;3.53;40.78;98394.03;6234640;23;20031;-36
2022/03/02 00:37:15;;;;;;;12.37;8.57;;;2.90;45.50;;;3.52;40.67;98396.75;6236416;23;20229;-36
2022/03/02 00:39:45;;;;;;;13.93;8.77;;;2.90;45.70;;;3.52;40.70;98397.59;6236181;23;20012;-36
2022/03/02 00:42:13;;;;;;;12.73;7.80;;;2.90;45.90;;;3.52;41.11;98394.97;6234930;23;20034;-36
2022/03/02 00:44:40;;;;;;;14.67;8.77;;;2.90;45.70;;;3.50;41.36;98398.66;6236799;23;20016;-36
2022/03/02 00:47:09;;;;;;;12.33;8.73;;;2.90;45.70;;;3.51;41.24;98392.44;6238523;23;20016;-36
2022/03/02 00:49:38;;;;;;;17.23;9.47;;;2.90;46.30;;;3.53;41.13;98390.56;6235844;23;20206;-36
2022/03/02 00:52:09;;;;;;;15.07;9.10;;;3.00;45.20;;;3.55;41.09;98383.41;6235302;23;20352;-36
2022/03/02 00:54:37;;;;;;;13.27;8.27;;;3.00;45.20;;;3.55;41.21;98386.03;6210254;23;20022;-36
2022/03/02 00:57:05;;;;;;;11.27;7.93;;;3.00;45.40;;;3.54;41.01;98386.97;6237358;23;20027;-36
2022/03/02 00:59:33;;;;;;;12.90;8.07;;;3.00;45.70;;;3.54;40.89;98384.34;6236812;23;20303;-35
2022/03/02 01:02:01;;;;;;;12.87;8.50;;;2.90;45.90;;;3.50;41.25;98388.13;6236870;23;20012;-35
2022/03/02 01:04:29;;;;;;;15.27;8.43;;;2.90;46.40;;;3.44;41.24;98383.25;6235450;23;20020;-35
2022/03/02 01:06:57;;;;;;;14.80;9.13;;;2.80;46.60;;;3.39;41.52;98386.16;6235415;23;20028;-35
2022/03/02 01:09:25;;;;;;;13.37;8.07;;;2.70;46.80;;;3.37;41.53;98377.50;6235948;23;20019;-36
2022/03/02 01:11:54;;;;;;;13.17;8.33;;;2.70;46.90;;;3.35;41.45;98377.63;6236568;23;20020;-35
2022/03/02 01:14:22;;;;;;;14.33;8.40;;;2.70;46.70;;;3.34;41.34;98372.47;6236531;23;20026;-35
2022/03/02 01:16:50;;;;;;;14.47;8.53;;;2.70;46.70;;;3.31;41.43;98368.22;6236317;23;20210;-35
2022/03/02 01:19:18;;;;;;;15.13;8.97;;;2.70;46.70;;;3.30;41.45;98361.28;6235356;23;20042;-35
2022/03/02 01:21:46;;;;;;;14.53;8.73;;;2.70;46.50;;;3.30;41.42;98353.38;6209885;23;20030;-36
2022/03/02 01:24:14;;;;;;;13.30;8.37;;;2.70;46.30;;;3.33;41.37;98350.56;6209789;23;20016;-36
2022/03/02 01:26:42;;;;;;;15.93;8.13;;;2.80;45.90;;;3.39;41.27;98344.03;6235945;23;20016;-36
2022/03/02 01:29:10;;;;;;;14.37;8.53;;;2.90;45.60;;;3.40;41.11;98350.16;6235797;23;20038;-37
2022/03/02 01:31:38;;;;;;;16.03;7.83;;;2.90;45.10;;;3.44;41.23;98343.75;6237253;23;20030;-36
2022/03/02 01:34:05;;;;;;;17.13;9.53;;;3.00;45.00;;;3.47;40.95;98343.53;6235629;23;20020;-36
2022/03/02 01:36:33;;;;;;;15.43;9.43;;;3.10;45.00;;;3.50;41.49;98338.94;6235559;23;20035;-37
2022/03/02 01:39:01;;;;;;;14.33;8.50;;;3.10;45.00;;;3.50;41.35;98336.28;6234884;23;20012;-36
2022/03/02 01:41:29;;;;;;;13.73;8.73;;;3.10;45.30;;;3.46;41.01;98329.53;6235902;23;20024;-36
2022/03/02 01:43:57;;;;;;;13.93;8.10;;;3.00;45.40;;;3.44;41.05;98333.22;6233769;23;20020;-36
2022/03/02 01:46:25;;;;;;;16.80;9.07;;;2.90;45.70;;;3.46;41.43;98326.06;6234119;23;20028;-36
2022/03/02 01:48:53;;;;;;;16.00;8.83;;;2.90;45.80;;;3.48;41.44;98327.66;6235606;23;20077;-36
2022/03/02 01:51:20;;;;;;;13.43;8.17;;;3.00;45.60;;;3.49;41.33;98326.72;6236855;23;20024;-36
2022/03/02 01:53:49;;;;;;;13.20;8.73;;;3.00;45.30;;;3.52;40.74;98320.41;6234889;23;20038;-36
2022/03/02 01:56:17;;;;;;;15.13;8.80;;;3.00;45.20;;;3.50;40.54;98312.59;6235139;23;20016;-36
2022/03/02 01:58:46;;;;;;;13.87;7.97;;;3.00;45.00;;;3.50;40.89;98303.88;6235510;23;20367;-36
2022/03/02 02:01:15;;;;;;;14.50;7.77;;;3.10;44.80;;;3.52;40.83;98300.19;6235308;23;20034;-36
2022/03/02 02:03:44;;;;;;;15.13;8.93;;;3.10;44.90;;;3.55;40.94;98299.16;6208239;23;20360;-36
2022/03/02 02:06:13;;;;;;;14.70;8.13;;;3.10;44.90;;;3.57;41.22;98294.63;6235124;23;20016;-36
2022/03/02 02:08:42;;;;;;;13.23;7.23;;;3.10;45.20;;;3.59;40.65;98294.50;6235170;23;20023;-36
2022/03/02 02:11:12;;;;;;;15.67;8.60;;;3.10;45.00;;;3.57;40.95;98292.00;6236048;23;20024;-36
2022/03/02 02:13:41;;;;;;;15.03;8.63;;;3.10;45.40;;;3.54;41.07;98285.13;6234503;23;20034;-36
2022/03/02 02:16:09;;;;;;;15.47;8.40;;;3.10;45.10;;;3.48;41.14;98282.91;6234768;23;20338;-36
2022/03/02 02:18:37;;;;;;;13.90;8.57;;;3.10;45.00;;;3.45;40.92;98288.38;6234599;23;20016;-36
2022/03/02 02:21:09;;;;;;;12.13;8.07;;;3.00;45.00;;;3.42;41.16;98279.84;6234436;23;20038;-36
2022/03/02 02:23:38;;;;;;;15.93;8.40;;;2.80;45.50;;;3.37;41.20;98274.84;6244727;23;20024;-36
2022/03/02 02:26:07;;;;;;;15.37;7.87;;;2.80;45.50;;;3.33;41.01;98268.97;6207895;23;20020;-36
2022/03/02 02:28:35;;;;;;;13.63;8.30;;;2.70;45.60;;;3.30;40.79;98270.97;6234545;23;20027;-36
2022/03/02 02:31:04;;;;;;;17.37;8.57;;;2.70;45.50;;;3.26;40.75;98272.94;6235413;23;20008;-35
2022/03/02 02:33:32;;;;;;;15.73;8.63;;;2.60;45.90;;;3.20;41.62;98264.59;6234949;23;20019;-35
2022/03/02 02:36:00;;;;;;;14.27;8.63;;;2.50;46.20;;;3.13;41.40;98274.69;6234048;23;20024;-35
2022/03/02 02:38:28;;;;;;;14.73;8.40;;;2.50;46.40;;;3.06;41.45;98276.84;6235764;23;20050;-36
2022/03/02 02:40:56;;;;;;;15.03;7.83;;;2.40;46.50;;;2.99;41.37;98272.09;6210342;23;20012;-36
2022/03/02 02:43:25;;;;;;;14.60;8.63;;;2.30;46.70;;;2.93;41.23;98266.28;6209062;23;20016;-36
2022/03/02 02:45:54;;;;;;;11.43;7.43;;;2.20;46.80;;;2.91;41.27;98269.97;6234164;23;20330;-36
2022/03/02 02:48:22;;;;;;;13.93;8.70;;;2.20;46.80;;;2.86;41.74;98267.59;6235976;23;20016;-36
2022/03/02 02:50:50;;;;;;;13.47;8.13;;;2.20;47.00;;;2.84;41.74;98273.91;6236525;23;20016;-36
2022/03/02 02:53:18;;;;;;;15.23;7.60;;;2.10;47.70;;;2.83;41.88;98278.34;6234345;23;20024;-36
2022/03/02 02:55:48;;;;;;;14.30;7.87;;;2.20;46.80;;;2.83;41.51;98280.09;6233960;23;20019;-37
2022/03/02 02:58:16;;;;;;;13.97;8.20;;;2.20;46.70;;;2.73;41.67;98275.44;6233900;23;20030;-36
2022/03/02 03:00:47;;;;;;;16.00;8.53;;;2.10;47.00;;;2.71;42.04;98271.22;6235076;23;20020;-36
2022/03/02 03:03:14;;;;;;;13.10;8.27;;;2.10;47.40;;;2.68;41.83;98268.78;6219629;23;20016;-36
2022/03/02 03:05:46;;;;;;;14.43;8.40;;;2.00;47.70;;;2.63;41.80;98271.69;6233382;23;20519;-36
2022/03/02 03:08:14;;;;;;;14.80;7.50;;;2.00;48.30;;;2.56;42.41;98265.16;6234553;23;20024;-36
2022/03/02 03:10:45;;;;;;;12.63;7.70;;;1.80;48.30;;;2.52;42.35;98263.63;6208355;23;20220;-36
2022/03/02 03:13:15;;;;;;;12.63;8.07;;;1.80;48.70;;;2.47;42.66;98263.09;6244520;23;20016;-35
2022/03/02 03:15:44;;;;;;;16.17;9.00;;;1.70;49.00;;;2.44;42.79;98260.63;6233378;23;20020;-35
2022/03/02 03:18:12;;;;;;;18.43;10.07;;;1.70;49.30;;;2.43;42.99;98259.81;6235369;23;20019;-35
2022/03/02 03:20:40;;;;;;;12.20;8.97;;;1.80;49.20;;;2.44;42.31;98256.22;6209616;23;20012;-35
2022/03/02 03:23:09;;;;;;;16.37;8.53;;;1.80;48.70;;;2.44;42.31;98245.69;6235393;23;20364;-35
2022/03/02 03:25:37;;;;;;;15.63;8.57;;;1.90;48.10;;;2.49;42.37;98245.44;6234609;23;20018;-35
2022/03/02 03:28:05;;;;;;;17.80;8.00;;;2.00;47.50;;;2.49;42.07;98243.63;6234470;23;20024;-35
2022/03/02 03:30:34;;;;;;;23.53;9.13;;;2.10;47.10;;;2.52;42.20;98246.09;6232237;23;20024;-36
2022/03/02 03:33:04;;;;;;;15.53;8.10;;;2.10;46.70;;;2.60;42.10;98244.75;6208710;23;20016;-36
2022/03/02 03:35:33;;;;;;;13.97;9.03;;;2.20;46.80;;;2.61;42.33;98249.91;6235448;23;20026;-36
2022/03/02 03:38:01;;;;;;;12.07;7.87;;;2.10;47.10;;;2.61;42.13;98244.66;6235143;23;20019;-35
2022/03/02 03:40:29;;;;;;;16.17;8.97;;;2.10;47.40;;;2.60;42.33;98250.00;6235401;23;20018;-35
2022/03/02 03:42:57;;;;;;;16.37;8.90;;;2.10;48.20;;;2.56;42.13;98242.31;6236183;23;20027;-36
2022/03/02 03:45:25;;;;;;;13.47;8.30;;;2.00;47.20;;;2.56;42.19;98236.22;6208321;23;20027;-36
2022/03/02 03:47:53;;;;;;;15.07;8.10;;;2.10;47.10;;;2.55;42.27;98237.16;6208273;23;20042;-36
2022/03/02 03:50:22;;;;;;;14.47;8.43;;;2.00;47.20;;;2.55;42.13;98248.50;6235314;23;20023;-35
2022/03/02 03:52:50;;;;;;;14.97;8.47;;;2.00;47.40;;;2.50;41.80;98247.97;6235618;23;20024;-36
2022/03/02 03:55:19;;;;;;;13.10;8.37;;;2.00;46.90;;;2.53;42.06;98239.03;6233717;23;20018;-35
2022/03/02 03:57:47;;;;;;;14.67;8.87;;;2.00;46.80;;;2.54;42.13;98248.63;6234858;23;20018;-35
2022/03/02 04:00:18;;;;;;;13.97;8.30;;;2.10;47.00;;;2.54;42.44;98235.50;6235437;23;20020;-36
2022/03/02 04:02:47;;;;;;;16.63;9.73;;;2.00;47.70;;;2.51;42.46;98243.56;6245135;23;20306;-35
2022/03/02 04:05:16;;;;;;;16.07;11.03;;;2.00;48.10;;;2.47;42.89;98245.53;6207810;23;20321;-35
2022/03/02 04:07:46;;;;;;;16.67;9.80;;;2.00;48.20;;;2.41;42.52;98237.19;6232694;23;20229;-35
2022/03/02 04:10:16;;;;;;;16.67;9.60;;;1.90;48.40;;;2.34;42.41;98237.53;6209886;23;20016;-35
2022/03/02 04:12:45;;;;;;;16.17;10.23;;;1.80;48.70;;;2.31;42.52;98239.53;6237789;23;20027;-36
2022/03/02 04:15:13;;;;;;;12.33;8.47;;;1.70;48.70;;;2.27;42.93;98235.38;6236437;23;20026;-35
2022/03/02 04:17:42;;;;;;;13.67;9.30;;;1.70;49.60;;;2.22;43.04;98233.06;6235475;23;20022;-35
2022/03/02 04:20:10;;;;;;;16.43;9.23;;;1.60;49.50;;;2.14;43.17;98233.53;6236868;23;20020;-35
2022/03/02 04:22:38;;;;;;;15.77;8.73;;;1.50;49.70;;;2.07;42.89;98226.94;6236867;23;20027;-35
2022/03/02 04:25:07;;;;;;;15.70;8.73;;;1.40;49.90;;;2.05;43.38;98222.75;6236415;23;20315;-35
2022/03/02 04:27:35;;;;;;;16.63;9.10;;;1.40;50.00;;;2.01;43.15;98216.00;6235241;23;20394;-35
2022/03/02 04:30:05;;;;;;;17.77;8.77;;;1.40;49.40;;;1.97;43.19;98207.44;6236916;23;20023;-36
2022/03/02 04:32:34;;;;;;;14.40;8.50;;;1.50;49.20;;;1.91;43.39;98200.78;6235820;23;20028;-36
2022/03/02 04:35:03;;;;;;;13.60;9.07;;;1.50;49.40;;;1.97;43.58;98200.41;6236997;23;20353;-35
2022/03/02 04:37:31;;;;;;;16.23;8.83;;;1.50;49.20;;;1.83;43.82;98199.59;6234897;23;20012;-35
2022/03/02 04:39:59;;;;;;;14.60;8.57;;;1.60;48.50;;;1.85;43.69;98189.84;6236479;23;20019;-36
2022/03/02 04:42:26;;;;;;;13.67;8.23;;;1.60;48.10;;;1.83;43.56;98186.47;6234851;23;20374;-36
2022/03/02 04:44:54;;;;;;;17.60;8.67;;;1.60;48.20;;;1.85;43.85;98184.56;6236340;23;20023;-36
2022/03/02 04:47:22;;;;;;;11.43;8.00;;;1.60;48.00;;;1.88;43.15;98190.50;6235920;23;20436;-36
2022/03/02 04:49:51;;;;;;;14.50;8.07;;;1.60;47.90;;;1.91;43.06;98178.94;6236319;23;20221;-36
2022/03/02 04:52:19;;;;;;;12.97;8.43;;;1.70;47.90;;;1.96;43.65;98180.34;6237189;23;20031;-36
2022/03/02 04:55:05;;;;;;;12.47;8.17;;;1.70;48.10;;;2.03;43.41;98180.81;6236284;23;20012;-35
2022/03/02 04:57:44;;;;;;;13.80;8.33;;;1.70;48.00;;;1.97;43.34;98187.28;6235418;23;20020;-35
2022/03/02 05:00:20;;;;;;;12.23;8.37;;;1.70;47.60;;;2.00;42.84;98186.25;6246200;23;20020;-35
2022/03/02 05:02:49;;;;;;;16.77;7.60;;;1.70;47.70;;;2.06;42.98;98190.31;6244258;23;20326;-36
2022/03/02 05:05:19;;;;;;;16.27;9.17;;;1.70;47.80;;;2.09;43.24;98188.31;6234853;23;20016;-36
2022/03/02 05:07:49;;;;;;;26.57;12.10;;;1.70;47.90;;;2.09;43.14;98190.94;6236053;23;20306;-36
2022/03/02 05:10:19;;;;;;;19.27;12.03;;;1.70;48.50;;;2.10;43.58;98189.16;6236346;23;20024;-36
2022/03/02 05:12:47;;;;;;;22.17;12.37;;;1.60;49.80;;;2.07;43.34;98179.69;6235914;23;20023;-36
2022/03/02 05:15:16;;;;;;;21.47;11.80;;;1.60;49.10;;;2.06;43.71;98182.41;6234084;23;20222;-36
2022/03/02 05:17:45;;;;;;;19.13;10.50;;;1.60;49.70;;;2.03;43.85;98188.69;6235346;23;20022;-36
2022/03/02 05:20:15;;;;;;;25.17;12.30;;;1.50;50.00;;;2.00;43.69;98172.28;6234984;23;20020;-35
2022/03/02 05:22:44;;;;;;;23.63;12.00;;;1.40;50.60;;;1.96;43.93;98175.09;6235999;23;20022;-35
2022/03/02 05:25:13;;;;;;;20.13;11.60;;;1.40;50.70;;;1.99;43.89;98175.84;6234661;23;20032;-35
2022/03/02 05:27:42;;;;;;;22.77;13.70;;;1.40;50.40;;;1.96;43.86;98171.63;6236481;23;20024;-35
2022/03/02 05:30:16;;;;;;;21.35;12.05;;;1.50;51.50;;;1.92;43.84;98180.63;6245643;23;20028;-35
2022/03/02 05:32:43;;;;;;;27.53;13.53;;;1.40;51.00;;;1.88;44.33;98173.88;6234841;23;20020;-35
2022/03/02 05:35:11;;;;;;;26.00;13.40;;;1.30;51.60;;;1.84;44.36;98172.38;6235907;23;20026;-35
2022/03/02 05:37:42;;;;;;;21.27;11.00;;;1.30;51.50;;;1.80;44.88;98170.88;6234259;23;20031;-35
2022/03/02 05:40:15;;;;;;;22.00;11.87;;;1.30;52.10;;;1.79;45.17;98174.44;6245553;23;20020;-35
2022/03/02 05:42:50;;;;;;;25.03;13.27;;;1.20;52.50;;;1.76;44.83;98172.84;6246190;23;20020;-35
2022/03/02 05:45:17;;;;;;;33.57;15.60;;;1.20;52.70;;;1.75;44.95;98173.78;6234433;23;20167;-35
2022/03/02 05:47:45;;;;;;;20.40;10.97;;;1.20;53.40;;;1.75;45.62;98179.88;6234466;23;20022;-36
2022/03/02 05:50:13;;;;;;;14.93;9.57;;;1.20;53.50;;;1.75;45.32;98174.63;6237347;23;20015;-35
2022/03/02 05:52:41;;;;;;;16.77;8.67;;;1.20;52.90;;;1.76;45.52;98184.22;6236705;23;20208;-35
2022/03/02 05:55:09;;;;;;;17.73;10.07;;;1.20;52.90;;;1.76;45.39;98172.84;6235263;23;20016;-35
2022/03/02 05:57:37;;;;;;;15.20;7.87;;;1.20;52.50;;;1.80;45.47;98176.13;6235503;23;20208;-36
2022/03/02 06:00:06;;;;;;;12.70;8.00;;;1.30;52.60;;;1.85;45.17;98177.53;6234081;23;20221;-36
2022/03/02 06:02:37;;;;;;;17.63;9.77;;;1.30;52.60;;;1.89;45.75;98178.19;6234484;23;20217;-36
2022/03/02 06:05:09;;;;;;;20.53;10.63;;;1.40;52.20;;;1.92;45.60;98180.63;6235153;23;20314;-36
2022/03/02 06:07:37;;;;;;;43.10;18.20;;;1.50;52.50;;;1.97;45.58;98183.81;6245255;23;20022;-36
2022/03/02 06:10:06;;;;;;;59.10;24.17;;;1.50;52.00;;;1.99;45.47;98181.94;6236441;23;20015;-36
2022/03/02 06:12:34;;;;;;;60.50;23.27;;;1.60;52.00;;;2.02;45.60;98173.88;6235551;23;20016;-36
2022/03/02 06:15:04;;;;;;;46.77;21.43;;;1.60;52.30;;;2.03;45.43;98170.31;6235440;23;20013;-36
2022/03/02 06:17:32;;;;;;;65.73;27.57;;;1.60;52.00;;;2.06;45.44;98175.38;6236426;23;20314;-35
2022/03/02 06:20:00;;;;;;;94.00;36.27;;;1.70;52.40;;;2.09;45.11;98172.53;6233677;23;20210;-35
2022/03/02 06:22:32;;;;;;;52.07;22.37;;;1.70;52.10;;;2.10;45.37;98170.78;6245974;23;20027;-35
2022/03/02 06:25:00;;;;;;;24.53;12.73;;;1.70;52.10;;;2.12;45.49;98171.53;6235614;23;20023;-35
2022/03/02 06:27:28;;;;;;;18.73;11.03;;;1.70;52.00;;;2.10;45.32;98171.63;6235814;23;20359;-35
2022/03/02 06:29:56;;;;;;;16.33;8.87;;;1.70;52.00;;;2.10;45.37;98168.16;6234814;23;20205;-36
2022/03/02 06:32:24;;;;;;;19.97;10.83;;;1.70;52.20;;;2.11;45.71;98162.81;6236771;23;20016;-36
2022/03/02 06:34:52;;;;;;;16.63;9.63;;;1.70;52.30;;;2.16;45.36;98170.41;6235245;23;20016;-35
2022/03/02 06:37:21;;;;;;;18.93;10.40;;;1.80;52.20;;;2.15;45.22;98172.19;6235238;23;20024;-35
2022/03/02 06:39:49;;;;;;;20.90;11.97;;;1.70;52.20;;;2.12;45.55;98175.00;6208358;23;20271;-36
2022/03/02 06:42:27;;;;;;;18.67;11.27;;;1.70;52.20;;;2.15;45.83;98173.94;6234363;23;20046;-36
2022/03/02 06:45:04;;;;;;;16.43;9.93;;;1.80;52.50;;;2.18;45.70;98173.78;6244682;23;20012;-36
2022/03/02 06:48:01;;;;;;;16.33;10.63;;;1.80;52.60;;;2.22;46.02;98172.63;6210199;23;20026;-35
2022/03/02 06:50:34;;;;;;;16.03;11.10;;;1.90;52.30;;;2.29;46.03;98179.19;6233787;23;20016;-36
2022/03/02 06:53:02;;;;;;;13.77;10.07;;;2.00;52.30;;;2.35;46.10;98178.81;6234009;23;20016;-36
2022/03/02 06:55:30;;;;;;;16.77;10.57;;;2.00;52.20;;;2.39;45.96;98183.88;6234544;23;20024;-36
2022/03/02 06:58:00;;;;;;;15.97;10.80;;;2.00;52.60;;;2.38;45.70;98174.31;6236579;23;20020;-36
2022/03/02 07:00:31;;;;;;;13.93;9.13;;;2.00;52.80;;;2.41;45.95;98188.09;6235012;23;20027;-36
2022/03/02 07:03:05;;;;;;;20.63;10.50;;;2.00;53.40;;;2.45;46.42;98194.00;6246089;23;20222;-36
2022/03/02 07:05:34;;;;;;;22.45;12.48;;;2.10;53.70;;;2.47;46.72;98192.97;6233932;23;20028;-36
2022/03/02 07:08:03;;;;;;;21.73;11.83;;;2.10;54.00;;;2.49;46.75;98190.25;6234299;23;20028;-36
2022/03/02 07:10:36;;;;;;;18.63;12.30;;;2.10;54.40;;;2.47;46.73;98192.13;6235307;23;20031;-36
2022/03/02 07:13:06;;;;;;;23.50;13.37;;;2.00;55.50;;;2.48;47.20;98191.16;6245079;23;20024;-36
2022/03/02 07:15:35;;;;;;;20.87;11.10;;;2.10;55.40;;;2.48;47.27;98186.78;6234417;23;20027;-36
2022/03/02 07:18:04;;;;;;;18.07;11.57;;;2.10;55.30;;;2.49;47.38;98191.06;6235820;23;20020;-36
2022/03/02 07:20:36;;;;;;;21.40;10.60;;;2.10;56.20;;;2.50;47.16;98184.03;6233328;23;20037;-36
2022/03/02 07:23:06;;;;;;;16.50;10.20;;;2.10;55.40;;;2.51;47.28;98183.94;6219861;23;20230;-36
2022/03/02 07:25:39;;;;;;;16.97;9.90;;;2.10;55.80;;;2.50;47.13;98187.53;6208916;23;20024;-36
2022/03/02 07:28:12;;;;;;;13.60;9.37;;;2.10;55.20;;;2.53;47.46;98195.19;6244202;23;20024;-36
2022/03/02 07:30:42;;;;;;;19.93;10.00;;;2.20;54.40;;;2.58;46.61;98188.78;6234502;23;20020;-36
2022/03/02 07:33:15;;;;;;;16.80;10.27;;;2.20;53.20;;;2.64;46.40;98193.69;6235041;23;20231;-36
2022/03/02 07:35:55;;;;;;;15.87;9.13;;;2.20;52.10;;;2.69;46.01;98191.59;6208841;23;20030;-36
2022/03/02 07:38:23;;;;;;;14.23;9.57;;;2.30;51.80;;;2.71;45.89;98193.16;6235339;23;20023;-36
2022/03/02 07:40:52;;;;;;;15.73;10.03;;;2.40;51.00;;;2.79;46.09;98194.47;6235180;23;20020;-36
2022/03/02 07:43:21;;;;;;;15.13;9.23;;;2.50;51.90;;;2.84;46.40;98195.84;6235730;23;20020;-36
2022/03/02 07:45:50;;;;;;;17.27;10.73;;;2.60;52.60;;;2.88;46.52;98192.09;6235145;23;20026;-35
2022/03/02 07:48:17;;;;;;;17.90;10.43;;;2.60;52.50;;;2.96;46.17;98191.59;6238517;23;20030;-36
2022/03/02 07:50:49;;;;;;;16.03;10.10;;;2.70;52.10;;;3.00;45.63;98190.44;6236977;23;20361;-35
2022/03/02 07:53:20;;;;;;;16.77;9.13;;;2.70;51.10;;;3.02;45.83;98199.06;6245836;23;20030;-36
2022/03/02 07:55:52;;;;;;;15.50;8.80;;;2.70;50.70;;;3.05;45.60;98198.03;6210875;23;20024;-34
2022/03/02 07:58:21;;;;;;;17.03;10.60;;;2.70;50.80;;;3.09;45.99;98189.84;6222401;23;20299;-36
2022/03/02 08:00:54;;;;;;;16.63;9.97;;;2.70;50.50;;;3.14;45.50;98193.03;6209626;23;20020;-35
2022/03/02 08:03:27;;;;;;;15.23;9.50;;;2.80;50.40;;;3.19;45.45;98202.41;6234408;23;20022;-35
2022/03/02 08:06:00;;;;;;;16.17;8.98;;;2.80;50.50;;;3.21;45.57;98198.72;6245145;23;20024;-35
2022/03/02 08:08:28;;;;;;;13.63;8.47;;;2.90;51.00;;;3.23;45.58;98201.25;6235526;23;20042;-35
2022/03/02 08:10:56;;;;;;;14.23;9.07;;;2.80;51.20;;;3.29;45.76;98206.94;6236336;23;20325;-35
2022/03/02 08:13:25;;;;;;;16.57;9.80;;;2.90;51.00;;;3.35;45.57;98196.03;6236798;23;20024;-35
2022/03/02 08:15:53;;;;;;;13.63;8.67;;;3.00;50.90;;;3.38;45.24;98194.97;6235375;23;20434;-35
2022/03/02 08:18:21;;;;;;;12.80;9.57;;;3.10;50.70;;;3.42;45.32;98206.97;6236674;23;20012;-35
2022/03/02 08:20:59;;;;;;;17.65;10.38;;;3.10;50.60;;;3.49;45.42;98204.75;6239485;23;20334;-35
2022/03/02 08:23:36;;;;;;;17.67;10.53;;;3.20;50.70;;;3.54;45.96;98200.03;6207869;23;20020;-35
2022/03/02 08:26:05;;;;;;;16.27;10.10;;;3.30;51.20;;;3.60;45.89;98204.88;6231424;23;20046;-35
2022/03/02 08:28:35;;;;;;;20.27;10.60;;;3.30;51.30;;;3.67;45.98;98205.31;6250352;23;20061;-35
2022/03/02 08:31:03;;;;;;;23.57;12.70;;;3.50;51.70;;;3.73;46.41;98197.84;6250769;23;20207;-36
2022/03/02 08:33:34;;;;;;;18.10;11.60;;;3.50;52.20;;;3.78;46.24;98199.31;6252541;23;20318;-35
2022/03/02 08:36:12;;;;;;;15.00;11.23;;;3.50;53.30;;;3.83;45.95;98194.59;6261305;23;20022;-35
2022/03/02 08:38:45;;;;;;;18.70;11.40;;;3.60;53.20;;;3.86;46.06;98183.84;6249601;23;20030;-35
2022/03/02 08:41:15;;;;;;;15.30;10.80;;;3.60;52.40;;;3.89;46.10;98181.81;6234974;23;20018;-35
2022/03/02 08:43:47;;;;;;;17.67;12.17;;;3.70;52.20;;;3.92;46.22;98175.50;6251370;23;20097;-35
2022/03/02 08:46:22;;;;;;;12.97;10.23;;;3.70;52.70;;;3.96;46.72;98170.88;6225887;23;20020;-36
2022/03/02 08:48:54;;;;;;;17.70;10.67;;;3.70;52.80;;;3.98;46.32;98174.25;6219859;23;20042;-35
2022/03/02 08:51:26;;;;;;;20.20;11.43;;;3.70;52.90;;;4.02;46.49;98170.44;6221278;23;20028;-35
2022/03/02 08:54:01;;;;;;;19.97;10.90;;;3.80;53.60;;;4.05;46.61;98176.34;6248809;23;20333;-35
2022/03/02 08:56:35;;;;;;;18.70;11.23;;;3.80;52.80;;;4.12;46.70;98180.22;6256471;23;20019;-35
2022/03/02 08:59:04;;;;;;;21.02;11.50;;;3.90;52.60;;;4.19;46.49;98175.38;6257142;23;20020;-36
2022/03/02 09:01:33;;;;;;;22.90;12.93;;;4.00;52.60;;;4.25;46.82;98166.19;6186401;23;20512;-35
2022/03/02 09:04:02;;;;;;;27.10;14.47;;;4.10;52.50;;;4.33;46.24;98177.03;6213814;23;20325;-35
2022/03/02 09:06:33;;;;;;;20.33;12.43;;;4.20;52.10;;;4.38;46.38;98176.69;6236247;23;20026;-35
2022/03/02 09:09:02;;;;;;;18.87;11.30;;;4.20;51.50;;;4.42;46.10;98181.66;6210670;23;20214;-36
2022/03/02 09:11:30;;;;;;;22.30;11.83;;;4.30;51.60;;;4.47;46.04;98178.69;6235573;23;20020;-35
2022/03/02 09:14:01;;;;;;;20.07;10.90;;;4.30;51.80;;;4.52;46.27;98166.03;6236521;23;20212;-36
2022/03/02 09:16:30;;;;;;;22.00;11.10;;;4.40;52.20;;;4.58;46.13;98170.84;6234723;23;20330;-35
2022/03/02 09:18:58;;;;;;;20.80;12.87;;;4.40;51.40;;;4.65;46.11;98177.38;6236759;23;20016;-35
2022/03/02 09:21:26;;;;;;;17.17;11.43;;;4.50;51.50;;;4.72;46.57;98167.19;6237185;23;20042;-35
2022/03/02 09:23:55;;;;;;;21.43;11.10;;;4.60;51.60;;;4.79;45.88;98168.44;6210281;23;20020;-36
2022/03/02 09:26:23;;;;;;;16.13;10.37;;;4.70;51.60;;;4.85;45.90;98169.81;6237952;23;20133;-35
2022/03/02 09:28:52;;;;;;;19.27;11.57;;;4.70;51.90;;;4.87;46.69;98167.88;6236385;23;20019;-35
2022/03/02 09:31:22;;;;;;;22.70;13.43;;;4.80;51.70;;;4.90;46.32;98171.16;6236604;23;20020;-35
2022/03/02 09:33:58;;;;;;;19.77;12.17;;;4.80;52.20;;;4.95;46.57;98164.69;6235716;23;20567;-36
2022/03/02 09:36:26;;;;;;;28.87;13.10;;;4.80;52.50;;;5.00;46.51;98173.94;6245544;23;20016;-36
2022/03/02 09:38:55;;;;;;;21.77;11.80;;;4.90;52.50;;;5.03;46.37;98165.78;6235958;23;20217;-35
2022/03/02 09:41:49;;;;;;;17.27;11.87;;;4.90;52.80;;;5.09;46.54;98167.97;6237158;23;20209;-36
2022/03/02 09:44:20;;;;;;;19.13;11.90;;;5.00;52.80;;;5.14;46.76;98162.38;6222010;23;20054;-35
2022/03/02 09:46:55;;;;;;;16.17;11.97;;;5.00;52.10;;;5.19;46.54;98162.84;6235310;23;20023;-36
2022/03/02 09:49:28;;;;;;;18.13;11.60;;;5.10;52.10;;;5.24;46.42;98160.72;6228200;23;20016;-36
2022/03/02 09:52:12;;;;;;;23.48;14.35;;;5.10;51.60;;;5.29;46.27;98160.34;6218311;23;20276;-35
2022/03/02 09:54:52;;;;;;;21.63;13.23;;;5.20;51.20;;;5.35;46.68;98165.19;6234343;23;20221;-36
2022/03/02 09:57:23;;;;;;;20.90;12.37;;;5.30;51.50;;;5.39;46.02;98157.84;6249379;23;20022;-35
2022/03/02 09:59:57;;;;;;;17.93;10.93;;;5.30;50.90;;;5.45;45.70;98160.91;6261762;23;20020;-35
2022/03/02 10:02:37;;;;;;;18.63;12.63;;;5.40;51.20;;;5.53;46.07;98152.41;6247523;23;20031;-35
2022/03/02 10:05:30;;;;;;;32.13;17.50;;;5.40;50.60;;;5.59;45.62;98159.84;6250776;23;20016;-34
2022/03/02 10:08:03;;;;;;;33.27;18.00;;;5.50;50.40;;;5.59;45.20;98157.19;6260357;23;20023;-35
2022/03/02 10:10:36;;;;;;;23.77;13.17;;;5.50;50.00;;;5.64;44.88;98162.13;6261285;23;20019;-35
2022/03/02 10:13:11;;;;;;;23.65;11.50;;;5.50;49.90;;;5.68;44.89;98142.44;6261567;23;20210;-35
2022/03/02 10:15:41;;;;;;;19.30;11.20;;;5.60;49.80;;;5.73;45.75;98154.31;6221582;23;20028;-35
2022/03/02 10:18:12;;;;;;;17.57;11.33;;;5.60;50.80;;;5.76;45.29;98152.41;6249913;23;20323;-35
2022/03/02 10:20:44;;;;;;;19.07;11.13;;;5.60;49.70;;;5.81;45.36;98147.63;6253908;23;20020;-35
2022/03/02 10:23:32;;;;;;;16.80;10.77;;;5.70;49.50;;;5.84;45.71;98140.31;6228475;23;20020;-35
2022/03/02 10:26:31;;;;;;;17.03;11.67;;;5.70;49.70;;;5.90;45.13;98147.75;6260902;23;20016;-36
2022/03/02 10:29:21;;;;;;;16.47;10.73;;;5.80;48.80;;;5.94;45.20;98147.53;6248671;23;20020;-35
2022/03/02 10:32:05;;;;;;;19.53;10.53;;;5.80;49.30;;;5.96;44.94;98149.09;6260253;23;20016;-37
2022/03/02 10:35:05;;;;;;;18.67;11.67;;;5.80;49.30;;;5.97;44.37;98157.88;6226299;23;20028;-35